Time;durP1;ratioP1;P1;durP2;ratioP2;P2;SDS_P1;SDS_P2;PMS_P1;PMS_P2;Temp;Humidity;BMP_temperature;BMP_pressure;BME280_temperature;BME280_humidity;BME280_pressure;Samples;Min_cycle;Max_cycle;Signal;HPM_P1;HPM_P2
2022/03/05 00:01:51;;;;;;;23.90;12.60;;;4.20;93.50;;;;;;6183634;23;20005;-83
2022/03/05 00:04:18;;;;;;;23.30;13.10;;;4.20;93.40;;;;;;6183730;23;20369;-83
2022/03/05 00:06:44;;;;;;;24.80;13.25;;;4.10;93.30;;;;;;6183740;23;20033;-82
2022/03/05 00:09:13;;;;;;;25.77;12.88;;;4.10;93.50;;;;;;6159867;23;20009;-82
2022/03/05 00:11:39;;;;;;;25.65;14.27;;;4.10;93.80;;;;;;6185422;23;20001;-83
2022/03/05 00:14:06;;;;;;;24.20;13.63;;;4.00;94.00;;;;;;6187179;23;20008;-83
2022/03/05 00:16:37;;;;;;;24.80;13.05;;;4.00;94.10;;;;;;6185138;23;20021;-83
2022/03/05 00:19:09;;;;;;;24.10;12.38;;;4.00;94.30;;;;;;6161621;23;20156;-84
2022/03/05 00:21:35;;;;;;;26.52;12.57;;;4.00;94.30;;;;;;6185389;23;20045;-84
2022/03/05 00:24:16;;;;;;;24.88;13.13;;;3.90;94.20;;;;;;6187307;23;19997;-83
2022/03/05 00:26:44;;;;;;;25.75;13.40;;;3.90;94.20;;;;;;6185597;23;19997;-83
2022/03/05 00:29:10;;;;;;;22.95;11.85;;;3.90;94.40;;;;;;6185520;23;20092;-83
2022/03/05 00:31:36;;;;;;;24.58;13.05;;;3.90;94.50;;;;;;6185320;23;20028;-83
2022/03/05 00:34:01;;;;;;;23.67;12.57;;;3.90;94.30;;;;;;6185600;23;20001;-82
2022/03/05 00:36:37;;;;;;;;;;;;;;;;;;;;;
2022/03/05 00:39:04;;;;;;;27.17;13.90;;;3.80;94.90;;;;;;6187077;23;20084;-83
2022/03/05 00:41:30;;;;;;;24.83;13.38;;;3.70;94.90;;;;;;6185187;23;20332;-83
2022/03/05 00:43:58;;;;;;;24.92;13.73;;;3.70;95.00;;;;;;6185439;23;19997;-83
2022/03/05 00:46:27;;;;;;;25.92;12.60;;;3.70;95.40;;;;;;6184209;23;20432;-84
2022/03/05 00:48:55;;;;;;;26.60;13.30;;;3.70;95.30;;;;;;6186571;23;20005;-83
2022/03/05 00:51:21;;;;;;;28.38;13.52;;;3.60;95.60;;;;;;6185159;23;20001;-84
2022/03/05 00:53:49;;;;;;;26.20;12.80;;;3.60;95.80;;;;;;6185285;23;20434;-83
2022/03/05 00:56:15;;;;;;;27.23;13.68;;;3.60;95.90;;;;;;6185696;23;20047;-82
2022/03/05 00:58:41;;;;;;;25.58;14.07;;;3.60;95.50;;;;;;6185158;23;20005;-83
2022/03/05 01:01:07;;;;;;;26.98;13.43;;;3.50;95.90;;;;;;6185295;23;20084;-82
2022/03/05 01:03:36;;;;;;;25.42;13.00;;;3.50;96.10;;;;;;6184926;23;20032;-83
2022/03/05 01:06:10;;;;;;;26.27;13.43;;;3.40;96.00;;;;;;6160522;23;20001;-83
2022/03/05 01:08:36;;;;;;;25.98;13.80;;;3.40;96.00;;;;;;6184859;23;20028;-83
2022/03/05 01:11:04;;;;;;;27.40;13.98;;;3.40;96.10;;;;;;6184085;23;20005;-83
2022/03/05 01:13:30;;;;;;;28.20;13.73;;;3.40;96.10;;;;;;6184628;23;20012;-83
2022/03/05 01:16:00;;;;;;;27.13;14.27;;;3.30;96.50;;;;;;6185036;23;20334;-82
2022/03/05 01:18:28;;;;;;;25.73;13.80;;;3.30;97.00;;;;;;6160193;23;20021;-83
2022/03/05 01:20:54;;;;;;;25.60;12.07;;;3.30;96.80;;;;;;6184706;23;20001;-83
2022/03/05 01:23:20;;;;;;;28.98;14.43;;;3.30;97.00;;;;;;6184942;23;20008;-83
2022/03/05 01:25:48;;;;;;;27.23;14.23;;;3.30;96.80;;;;;;6184863;23;20001;-83
2022/03/05 01:28:17;;;;;;;28.33;13.82;;;3.20;96.90;;;;;;6185089;23;20327;-83
2022/03/05 01:30:51;;;;;;;27.55;13.57;;;3.20;97.20;;;;;;6184383;23;20076;-84
2022/03/05 01:33:17;;;;;;;30.48;14.95;;;3.20;97.30;;;;;;6185206;23;20048;-83
2022/03/05 01:35:49;;;;;;;29.00;14.50;;;3.20;97.50;;;;;;6184609;23;20040;-83
2022/03/05 01:38:16;;;;;;;29.20;13.63;;;3.10;97.30;;;;;;6184941;23;20487;-83
2022/03/05 01:40:42;;;;;;;29.60;13.98;;;3.10;97.90;;;;;;6135641;23;20036;-83
2022/03/05 01:43:09;;;;;;;29.65;14.75;;;3.10;97.90;;;;;;6186522;23;20001;-83
2022/03/05 01:45:35;;;;;;;27.48;14.18;;;3.00;97.70;;;;;;6184699;23;20005;-83
2022/03/05 01:48:01;;;;;;;29.40;15.00;;;3.00;97.70;;;;;;6160011;23;20435;-83
2022/03/05 01:50:28;;;;;;;27.73;13.93;;;3.00;98.00;;;;;;6159729;23;20400;-83
2022/03/05 01:52:53;;;;;;;30.00;14.45;;;3.00;97.90;;;;;;6160165;23;20120;-83
2022/03/05 01:55:19;;;;;;;30.13;14.40;;;2.90;98.10;;;;;;6135435;23;20001;-83
2022/03/05 01:57:45;;;;;;;31.40;14.73;;;2.90;98.30;;;;;;6135185;23;20589;-83
2022/03/05 02:00:14;;;;;;;31.20;15.25;;;2.90;98.30;;;;;;6184231;23;20101;-83
2022/03/05 02:02:41;;;;;;;30.40;14.68;;;2.90;98.20;;;;;;6184651;23;20376;-84
2022/03/05 02:05:07;;;;;;;29.35;14.88;;;2.90;98.50;;;;;;6184853;23;20001;-83
2022/03/05 02:07:33;;;;;;;28.02;13.93;;;2.80;98.70;;;;;;6184444;23;20044;-83
2022/03/05 02:09:58;;;;;;;32.33;15.05;;;2.80;98.90;;;;;;6135406;23;20009;-83
2022/03/05 02:12:28;;;;;;;28.17;14.82;;;2.80;98.70;;;;;;6160162;23;20378;-83
2022/03/05 02:14:54;;;;;;;33.17;15.48;;;2.70;98.70;;;;;;6184651;23;19997;-83
2022/03/05 02:17:22;;;;;;;32.65;15.23;;;2.70;98.90;;;;;;6184484;23;20096;-84
2022/03/05 02:19:48;;;;;;;30.63;14.77;;;2.70;99.30;;;;;;6184392;23;20017;-83
2022/03/05 02:22:14;;;;;;;30.90;15.20;;;2.60;99.00;;;;;;6185006;23;19997;-83
2022/03/05 02:24:40;;;;;;;35.28;16.33;;;2.60;99.00;;;;;;6162062;23;20018;-84
2022/03/05 02:27:07;;;;;;;35.22;16.60;;;2.60;99.10;;;;;;6177596;23;20005;-82
2022/03/05 02:29:37;;;;;;;31.90;15.25;;;2.60;99.40;;;;;;6202880;23;20009;-82
2022/03/05 02:32:04;;;;;;;32.75;16.67;;;2.50;99.60;;;;;;6201056;23;20008;-83
2022/03/05 02:34:32;;;;;;;33.28;15.07;;;2.60;99.70;;;;;;6202360;23;20139;-88
2022/03/05 02:36:58;;;;;;;30.65;14.88;;;2.50;99.80;;;;;;6174089;23;20001;-83
2022/03/05 02:39:24;;;;;;;34.85;15.63;;;2.50;99.90;;;;;;6184394;23;20009;-83
2022/03/05 02:41:51;;;;;;;33.90;16.40;;;2.50;99.90;;;;;;6184012;23;20001;-83
2022/03/05 02:44:17;;;;;;;31.50;15.43;;;2.50;99.90;;;;;;6184295;23;20009;-83
2022/03/05 02:46:43;;;;;;;35.63;15.90;;;2.50;99.90;;;;;;6183972;23;20001;-83
2022/03/05 02:49:11;;;;;;;32.75;16.77;;;2.50;99.90;;;;;;6184352;23;20012;-84
2022/03/05 02:51:38;;;;;;;32.60;15.60;;;2.40;99.90;;;;;;6184026;23;20404;-83
2022/03/05 02:54:04;;;;;;;36.25;17.05;;;2.40;99.90;;;;;;6184277;23;20327;-83
2022/03/05 02:56:30;;;;;;;31.25;15.73;;;2.40;99.90;;;;;;6159285;23;20051;-84
2022/03/05 02:58:56;;;;;;;37.60;17.17;;;2.30;99.90;;;;;;6183697;23;20040;-83
2022/03/05 03:01:25;;;;;;;36.55;17.23;;;2.30;99.90;;;;;;6184141;23;20001;-84
2022/03/05 03:03:51;;;;;;;32.90;15.25;;;2.30;99.90;;;;;;6183842;23;20325;-83
2022/03/05 03:06:17;;;;;;;35.10;17.00;;;2.30;99.90;;;;;;6184002;23;20001;-83
2022/03/05 03:08:43;;;;;;;33.25;15.65;;;2.20;99.90;;;;;;6183614;23;20498;-84
2022/03/05 03:11:09;;;;;;;34.10;15.82;;;2.20;99.90;;;;;;6184193;23;19997;-83
2022/03/05 03:13:37;;;;;;;34.80;16.25;;;2.20;99.90;;;;;;6185524;23;20008;-84
2022/03/05 03:16:03;;;;;;;34.67;15.50;;;2.20;99.90;;;;;;6184082;23;20069;-83
2022/03/05 03:18:28;;;;;;;38.88;16.88;;;2.20;99.90;;;;;;6183591;23;20332;-83
2022/03/05 03:20:54;;;;;;;39.83;17.52;;;2.20;99.90;;;;;;6183605;23;20005;-83
2022/03/05 03:23:21;;;;;;;34.83;17.55;;;2.20;99.90;;;;;;6158876;23;20005;-84
2022/03/05 03:25:47;;;;;;;38.22;16.95;;;2.20;99.90;;;;;;6183738;23;19997;-83
2022/03/05 03:28:12;;;;;;;47.58;19.60;;;2.20;99.90;;;;;;6185416;23;19997;-83
2022/03/05 03:30:41;;;;;;;41.28;19.33;;;2.10;99.90;;;;;;6183641;23;20033;-84
2022/03/05 03:33:08;;;;;;;41.42;19.00;;;2.10;99.90;;;;;;6183950;23;20001;-83
2022/03/05 03:35:35;;;;;;;40.20;19.23;;;2.10;99.90;;;;;;6184051;23;20051;-82
2022/03/05 03:38:00;;;;;;;42.70;20.63;;;2.00;99.90;;;;;;6185274;23;20420;-83
2022/03/05 03:40:29;;;;;;;41.40;19.58;;;2.00;99.90;;;;;;6183781;23;20016;-83
2022/03/05 03:42:57;;;;;;;41.53;19.38;;;2.00;99.90;;;;;;6183659;23;20001;-83
2022/03/05 03:45:23;;;;;;;41.92;19.70;;;2.00;99.90;;;;;;6186169;23;20028;-84
2022/03/05 03:47:52;;;;;;;44.40;20.13;;;1.90;99.90;;;;;;6186314;23;20001;-83
2022/03/05 03:50:21;;;;;;;40.03;18.70;;;2.00;99.90;;;;;;6186063;23;20063;-84
2022/03/05 03:52:48;;;;;;;43.88;20.38;;;2.00;99.90;;;;;;6137514;23;20009;-83
2022/03/05 03:55:16;;;;;;;41.63;20.17;;;2.00;99.90;;;;;;6187068;23;20474;-83
2022/03/05 03:57:42;;;;;;;42.80;19.98;;;1.90;99.90;;;;;;6186877;23;20008;-83
2022/03/05 04:00:11;;;;;;;47.95;21.30;;;2.00;99.90;;;;;;6162362;23;20009;-83
2022/03/05 04:02:37;;;;;;;45.55;19.15;;;1.90;99.90;;;;;;6188801;23;20008;-83
2022/03/05 04:05:03;;;;;;;41.28;19.60;;;1.90;99.90;;;;;;6187087;23;20024;-83
2022/03/05 04:10:13;;;;;;;41.78;19.23;;;1.90;99.90;;;;;;6187335;23;20044;-84
2022/03/05 04:12:39;;;;;;;48.05;21.33;;;1.90;99.90;;;;;;6162474;23;20013;-86
2022/03/05 04:15:05;;;;;;;50.97;21.00;;;1.80;99.90;;;;;;6162011;23;20005;-83
2022/03/05 04:17:31;;;;;;;44.35;19.63;;;1.80;99.90;;;;;;6186502;23;20088;-84
2022/03/05 04:19:57;;;;;;;45.13;19.83;;;1.80;99.90;;;;;;6186859;23;20091;-83
2022/03/05 04:22:22;;;;;;;42.97;20.27;;;1.80;99.90;;;;;;6186856;23;20084;-83
2022/03/05 04:24:48;;;;;;;46.47;19.60;;;1.70;99.90;;;;;;6186926;23;20011;-83
2022/03/05 04:27:14;;;;;;;44.75;18.88;;;1.70;99.90;;;;;;6186699;23;20076;-84
2022/03/05 04:29:40;;;;;;;46.00;21.90;;;1.70;99.90;;;;;;6162182;23;20431;-82
2022/03/05 04:32:06;;;;;;;45.03;19.65;;;1.60;99.90;;;;;;6162130;23;20009;-83
2022/03/05 04:34:32;;;;;;;45.95;20.98;;;1.60;99.90;;;;;;6187047;23;20001;-83
2022/03/05 04:36:58;;;;;;;43.55;20.25;;;1.60;99.90;;;;;;6186422;23;20001;-83
2022/03/05 04:39:24;;;;;;;48.88;21.23;;;1.60;99.90;;;;;;6186770;23;20041;-83
2022/03/05 04:41:49;;;;;;;46.92;20.95;;;1.60;99.90;;;;;;6161970;23;20008;-83
2022/03/05 04:44:16;;;;;;;44.67;20.90;;;1.60;99.90;;;;;;6162102;23;20363;-83
2022/03/05 04:46:44;;;;;;;42.97;19.30;;;1.60;99.90;;;;;;6186845;23;19997;-83
2022/03/05 04:49:13;;;;;;;46.63;21.30;;;1.60;99.90;;;;;;6186659;23;20032;-84
2022/03/05 04:51:39;;;;;;;42.00;18.73;;;1.60;99.90;;;;;;6187069;23;20001;-84
2022/03/05 04:54:05;;;;;;;44.25;19.40;;;1.50;99.90;;;;;;6186797;23;20525;-83
2022/03/05 04:56:31;;;;;;;45.95;19.92;;;1.60;99.90;;;;;;6184927;23;20100;-83
2022/03/05 04:58:57;;;;;;;44.83;19.27;;;1.50;99.90;;;;;;6186191;23;20005;-83
2022/03/05 05:01:25;;;;;;;44.33;19.17;;;1.50;99.90;;;;;;6185223;23;20008;-83
2022/03/05 05:03:55;;;;;;;43.50;18.92;;;1.50;99.90;;;;;;6185039;23;20033;-83
2022/03/05 05:06:21;;;;;;;46.65;21.10;;;1.50;99.90;;;;;;6185231;23;20001;-83
2022/03/05 05:08:47;;;;;;;47.10;19.02;;;1.50;99.90;;;;;;6185014;23;20005;-84
2022/03/05 05:11:15;;;;;;;45.80;19.20;;;1.50;99.90;;;;;;6185159;23;20359;-83
2022/03/05 05:13:41;;;;;;;43.28;19.95;;;1.50;99.90;;;;;;6135953;23;20005;-83
2022/03/05 05:16:09;;;;;;;44.72;18.83;;;1.50;99.90;;;;;;6160314;23;20306;-83
2022/03/05 05:18:35;;;;;;;56.60;19.92;;;1.50;99.90;;;;;;6107216;23;20021;-83
2022/03/05 05:21:04;;;;;;;44.22;19.27;;;1.40;99.90;;;;;;6156607;23;20005;-83
2022/03/05 05:23:30;;;;;;;42.63;20.05;;;1.40;99.90;;;;;;6130608;23;20068;-83
2022/03/05 05:25:56;;;;;;;46.38;20.83;;;1.40;99.90;;;;;;6106043;23;20428;-83
2022/03/05 05:28:22;;;;;;;46.78;19.83;;;1.40;99.90;;;;;;6130414;23;20333;-82
2022/03/05 05:30:48;;;;;;;51.92;20.20;;;1.40;99.90;;;;;;6130324;23;19998;-84
2022/03/05 05:33:13;;;;;;;44.75;18.88;;;1.40;99.90;;;;;;6106123;23;20009;-82
2022/03/05 05:35:39;;;;;;;47.60;20.10;;;1.30;99.90;;;;;;6130521;23;20009;-83
2022/03/05 05:38:05;;;;;;;48.28;18.90;;;1.40;99.90;;;;;;6130363;23;20013;-83
2022/03/05 05:40:31;;;;;;;41.25;18.38;;;1.30;99.90;;;;;;6130503;23;20416;-83
2022/03/05 05:42:56;;;;;;;48.53;19.38;;;1.30;99.90;;;;;;6130242;23;20029;-83
2022/03/05 05:45:22;;;;;;;45.08;19.25;;;1.30;99.90;;;;;;6130401;23;20377;-84
2022/03/05 05:47:48;;;;;;;45.97;20.25;;;1.30;99.90;;;;;;6130410;23;19997;-83
2022/03/05 05:50:21;;;;;;;45.78;20.17;;;1.30;99.90;;;;;;6106162;23;20502;-83
2022/03/05 05:52:49;;;;;;;48.30;20.80;;;1.30;99.90;;;;;;6105757;23;20009;-83
2022/03/05 05:55:15;;;;;;;46.45;20.40;;;1.30;99.90;;;;;;6156213;23;20002;-85
2022/03/05 05:57:40;;;;;;;46.63;20.27;;;1.30;99.90;;;;;;6130317;23;20012;-83
2022/03/05 06:00:09;;;;;;;45.72;19.20;;;1.30;99.90;;;;;;6156031;23;20142;-82
2022/03/05 06:02:40;;;;;;;44.22;19.10;;;1.30;99.90;;;;;;6130298;23;20529;-83
2022/03/05 06:05:06;;;;;;;;;;;1.20;99.90;;;;;;6107972;23;20009;-83
2022/03/05 06:07:32;;;;;;;40.90;18.02;;;1.20;99.90;;;;;;6130292;23;19901;-83
2022/03/05 06:10:02;;;;;;;47.17;19.67;;;1.20;99.90;;;;;;6130149;23;20332;-83
2022/03/05 06:12:28;;;;;;;44.90;18.27;;;1.20;99.90;;;;;;6130433;23;19997;-84
2022/03/05 06:14:54;;;;;;;45.03;18.98;;;1.20;99.90;;;;;;6130002;23;20002;-83
2022/03/05 06:17:20;;;;;;;43.95;18.80;;;1.20;99.90;;;;;;6128468;23;20024;-83
2022/03/05 06:19:49;;;;;;;45.20;20.17;;;1.20;99.90;;;;;;6184504;23;20416;-83
2022/03/05 06:22:17;;;;;;;45.95;19.23;;;1.20;99.90;;;;;;6184280;23;19997;-83
2022/03/05 06:24:43;;;;;;;43.92;18.13;;;1.10;99.90;;;;;;6184187;23;20012;-83
2022/03/05 06:27:09;;;;;;;47.85;18.70;;;1.20;99.90;;;;;;6134925;23;20009;-83
2022/03/05 06:29:34;;;;;;;49.58;19.25;;;1.10;99.90;;;;;;6184490;23;20013;-83
2022/03/05 06:32:00;;;;;;;49.67;20.55;;;1.10;99.90;;;;;;6184222;23;20462;-84
2022/03/05 06:34:27;;;;;;;45.28;19.15;;;1.10;99.90;;;;;;6184352;23;20092;-83
2022/03/05 06:36:54;;;;;;;43.88;19.25;;;1.10;99.90;;;;;;6184245;23;20424;-85
2022/03/05 06:39:20;;;;;;;46.70;20.05;;;1.10;99.90;;;;;;6159645;23;20036;-83
2022/03/05 06:41:49;;;;;;;44.58;19.92;;;1.10;99.90;;;;;;6134905;23;20001;-82
2022/03/05 06:44:17;;;;;;;51.17;22.05;;;1.10;99.90;;;;;;6184158;23;20001;-83
2022/03/05 06:46:44;;;;;;;46.00;20.08;;;1.10;99.90;;;;;;6184328;23;20416;-83
2022/03/05 06:49:09;;;;;;;46.15;19.25;;;1.10;99.90;;;;;;6183946;23;20085;-82
2022/03/05 06:51:35;;;;;;;49.10;19.52;;;1.10;99.90;;;;;;6183809;23;20001;-82
2022/03/05 06:54:01;;;;;;;47.95;19.63;;;1.10;99.90;;;;;;6183958;23;20028;-83
2022/03/05 06:56:26;;;;;;;49.50;22.65;;;1.10;99.90;;;;;;6134945;23;20075;-82
2022/03/05 06:58:52;;;;;;;45.95;19.92;;;1.10;99.90;;;;;;6184054;23;20005;-82
2022/03/05 07:01:17;;;;;;;47.95;21.08;;;1.10;99.90;;;;;;6134738;23;20005;-82
2022/03/05 07:03:43;;;;;;;49.20;20.45;;;1.10;99.90;;;;;;6184210;23;20001;-82
2022/03/05 07:06:09;;;;;;;45.15;19.73;;;1.10;99.90;;;;;;6134658;23;20254;-82
2022/03/05 07:08:36;;;;;;;44.97;19.40;;;1.10;99.90;;;;;;6184230;23;20009;-82
2022/03/05 07:11:04;;;;;;;47.78;19.08;;;1.20;99.90;;;;;;6159087;23;20016;-83
2022/03/05 07:13:30;;;;;;;49.20;21.00;;;1.10;99.90;;;;;;6159798;23;20001;-82
2022/03/05 07:15:56;;;;;;;49.95;21.73;;;1.10;99.90;;;;;;6184054;23;20020;-82
2022/03/05 07:18:21;;;;;;;49.03;22.13;;;1.10;99.90;;;;;;6182980;23;20064;-83
2022/03/05 07:20:47;;;;;;;55.50;23.42;;;1.10;99.90;;;;;;6158801;23;20016;-83
2022/03/05 07:23:13;;;;;;;56.47;26.92;;;1.10;99.90;;;;;;6183893;23;20108;-82
2022/03/05 07:25:43;;;;;;;51.88;23.75;;;1.20;99.90;;;;;;6183831;23;20005;-82
2022/03/05 07:28:12;;;;;;;54.30;23.33;;;1.20;99.90;;;;;;6159888;23;20005;-82
2022/03/05 07:30:38;;;;;;;48.17;21.23;;;1.20;99.90;;;;;;6183700;23;20009;-82
2022/03/05 07:33:04;;;;;;;48.58;21.38;;;1.20;99.90;;;;;;6185556;23;20001;-81
2022/03/05 07:35:30;;;;;;;45.00;20.88;;;1.20;99.90;;;;;;6184046;23;20154;-82
2022/03/05 07:37:56;;;;;;;48.10;20.50;;;1.20;99.90;;;;;;6183498;23;20009;-82
2022/03/05 07:40:25;;;;;;;47.63;20.00;;;1.30;99.90;;;;;;6183810;23;20012;-83
2022/03/05 07:42:50;;;;;;;45.47;21.08;;;1.30;99.90;;;;;;6185924;23;20005;-83
2022/03/05 07:45:16;;;;;;;43.30;20.65;;;1.30;99.90;;;;;;6183712;23;20032;-83
2022/03/05 07:47:46;;;;;;;43.50;20.00;;;1.30;99.90;;;;;;6183717;23;20005;-82
2022/03/05 07:50:12;;;;;;;44.95;19.40;;;1.40;99.90;;;;;;6183319;23;20001;-82
2022/03/05 07:52:38;;;;;;;40.75;18.42;;;1.40;99.90;;;;;;6183763;23;20006;-83
2022/03/05 07:55:04;;;;;;;44.10;18.38;;;1.40;99.90;;;;;;6184506;23;20305;-83
2022/03/05 07:57:32;;;;;;;41.25;19.83;;;1.50;99.90;;;;;;6159306;23;20084;-83
2022/03/05 07:59:58;;;;;;;42.38;18.40;;;1.50;99.90;;;;;;6183482;23;20012;-82
2022/03/05 08:02:26;;;;;;;41.30;17.85;;;1.50;99.90;;;;;;6183131;23;20005;-83
2022/03/05 08:04:51;;;;;;;45.60;18.58;;;1.50;99.90;;;;;;6183840;23;19998;-82
2022/03/05 08:07:21;;;;;;;40.65;18.92;;;1.60;99.90;;;;;;6183541;23;20040;-83
2022/03/05 08:09:47;;;;;;;40.65;18.33;;;1.60;99.90;;;;;;6183735;23;20005;-82
2022/03/05 08:12:13;;;;;;;41.45;17.00;;;1.70;99.90;;;;;;6158529;23;20039;-83
2022/03/05 08:14:38;;;;;;;37.40;18.48;;;1.70;99.90;;;;;;6183112;23;20001;-82
2022/03/05 08:17:04;;;;;;;38.75;17.20;;;1.80;99.90;;;;;;6156583;23;20100;-83
2022/03/05 08:19:30;;;;;;;39.70;17.63;;;1.80;99.90;;;;;;6182918;23;20331;-83
2022/03/05 08:21:56;;;;;;;43.65;19.05;;;1.90;99.90;;;;;;6158090;23;20451;-83
2022/03/05 08:24:21;;;;;;;43.17;19.17;;;1.90;99.90;;;;;;6183216;23;20420;-83
2022/03/05 08:26:47;;;;;;;41.40;18.50;;;2.00;99.90;;;;;;6158936;23;20036;-82
2022/03/05 08:29:13;;;;;;;41.72;19.25;;;2.00;99.90;;;;;;6183398;23;20005;-82
2022/03/05 08:31:39;;;;;;;41.08;18.25;;;2.10;99.90;;;;;;6159897;23;20005;-83
2022/03/05 08:34:05;;;;;;;44.40;19.35;;;2.10;99.90;;;;;;6135903;23;20316;-88
2022/03/05 08:36:32;;;;;;;43.70;18.55;;;2.20;99.90;;;;;;6160755;23;20002;-84
2022/03/05 08:39:02;;;;;;;43.03;20.17;;;2.20;99.90;;;;;;6161009;23;20052;-83
2022/03/05 08:41:28;;;;;;;41.67;19.15;;;2.30;99.90;;;;;;6161005;23;20032;-84
2022/03/05 08:43:56;;;;;;;46.28;19.55;;;2.30;99.90;;;;;;6161058;23;20015;-84
2022/03/05 08:46:22;;;;;;;42.85;19.48;;;2.30;99.90;;;;;;6160407;23;20088;-84
2022/03/05 08:48:48;;;;;;;43.20;19.13;;;2.40;99.90;;;;;;6185277;23;20036;-84
2022/03/05 08:51:34;;;;;;;44.25;19.10;;;2.40;99.90;;;;;;6184897;23;20001;-84
2022/03/05 08:54:00;;;;;;;45.22;20.48;;;2.50;99.90;;;;;;6185748;23;20498;-84
2022/03/05 08:56:26;;;;;;;44.70;19.63;;;2.50;99.90;;;;;;6185086;23;20278;-84
2022/03/05 08:58:52;;;;;;;48.33;20.38;;;2.60;99.90;;;;;;6185236;23;20033;-84
2022/03/05 09:01:20;;;;;;;50.13;21.30;;;2.60;99.90;;;;;;6185091;23;20089;-83
2022/03/05 09:03:51;;;;;;;45.92;20.65;;;2.70;99.90;;;;;;6162031;23;20442;-83
2022/03/05 09:06:17;;;;;;;42.58;19.92;;;2.70;99.90;;;;;;6185179;23;20005;-83
2022/03/05 09:08:53;;;;;;;44.22;20.27;;;2.80;99.90;;;;;;6184927;23;20029;-83
2022/03/05 09:11:19;;;;;;;44.15;19.65;;;2.80;99.90;;;;;;6136650;23;20005;-84
2022/03/05 09:13:45;;;;;;;44.00;19.77;;;2.90;99.90;;;;;;6186497;23;20507;-83
2022/03/05 09:16:11;;;;;;;44.25;20.73;;;3.00;99.90;;;;;;6160203;23;20105;-85
2022/03/05 09:18:36;;;;;;;45.05;19.77;;;3.00;99.90;;;;;;6157778;23;20017;-84
2022/03/05 09:21:02;;;;;;;45.78;19.50;;;3.10;99.90;;;;;;6158727;23;20086;-83
2022/03/05 09:23:28;;;;;;;48.35;20.58;;;3.20;99.90;;;;;;6160125;23;20454;-83
2022/03/05 09:25:58;;;;;;;45.38;20.15;;;3.20;99.90;;;;;;6184970;23;20075;-83
2022/03/05 09:28:24;;;;;;;48.20;20.42;;;3.30;99.90;;;;;;6184816;23;20008;-83
2022/03/05 09:30:50;;;;;;;40.78;19.23;;;3.40;99.90;;;;;;6184973;23;20001;-83
2022/03/05 09:33:21;;;;;;;46.38;21.15;;;3.40;99.90;;;;;;6184336;23;20005;-83
2022/03/05 09:35:46;;;;;;;45.60;20.55;;;3.60;99.90;;;;;;6160837;23;20013;-83
2022/03/05 09:38:12;;;;;;;49.97;21.40;;;3.70;99.90;;;;;;6184977;23;20001;-83
2022/03/05 09:40:41;;;;;;;45.40;19.38;;;3.70;99.90;;;;;;6184742;23;20005;-83
2022/03/05 09:43:11;;;;;;;49.03;20.85;;;3.80;99.90;;;;;;6184702;23;20001;-83
2022/03/05 09:45:45;;;;;;;47.30;21.85;;;3.90;99.90;;;;;;6185036;23;20035;-83
2022/03/05 09:48:31;;;;;;;40.92;19.60;;;4.10;99.90;;;;;;6184881;23;20021;-83
2022/03/05 09:50:58;;;;;;;45.95;21.13;;;4.10;99.90;;;;;;6165097;23;20040;-83
2022/03/05 09:53:36;;;;;;;41.55;18.73;;;4.30;99.90;;;;;;6184604;23;20442;-84
2022/03/05 09:56:08;;;;;;;41.63;18.95;;;4.40;99.90;;;;;;6184794;23;20487;-83
2022/03/05 09:58:57;;;;;;;42.60;19.10;;;4.50;99.90;;;;;;6135747;23;20005;-83
2022/03/05 10:01:23;;;;;;;42.28;18.98;;;4.60;99.90;;;;;;6186042;23;20005;-84
2022/03/05 10:03:55;;;;;;;40.13;19.70;;;4.70;99.90;;;;;;6186316;23;19997;-83
2022/03/05 10:06:26;;;;;;;45.13;19.23;;;4.80;99.90;;;;;;6184578;23;20042;-83
2022/03/05 10:08:52;;;;;;;40.22;19.30;;;4.90;99.90;;;;;;6184059;23;20012;-84
2022/03/05 10:11:27;;;;;;;42.75;18.63;;;5.10;99.90;;;;;;6183234;23;20343;-83
2022/03/05 10:13:56;;;;;;;40.13;18.55;;;5.20;99.90;;;;;;6185350;23;20001;-83
2022/03/05 10:16:32;;;;;;;38.35;18.98;;;5.30;99.90;;;;;;6159252;23;20012;-84
2022/03/05 10:19:18;;;;;;;39.75;18.75;;;5.40;99.90;;;;;;6159898;23;20048;-83
2022/03/05 10:22:08;;;;;;;42.58;20.40;;;5.50;99.90;;;;;;6183482;23;20423;-84
2022/03/05 10:24:39;;;;;;;38.10;18.40;;;5.60;99.90;;;;;;6183509;23;20081;-81
2022/03/05 10:27:14;;;;;;;38.00;19.05;;;5.70;99.90;;;;;;6184376;23;20025;-82
2022/03/05 10:29:44;;;;;;;42.00;20.67;;;5.80;99.90;;;;;;6183662;23;20005;-82
2022/03/05 10:32:12;;;;;;;39.42;19.83;;;6.00;99.90;;;;;;6184589;23;20024;-82
2022/03/05 10:34:48;;;;;;;38.80;19.33;;;6.10;99.90;;;;;;6184098;23;20009;-83
2022/03/05 10:37:18;;;;;;;39.53;19.58;;;6.20;99.90;;;;;;6184416;23;20001;-82
2022/03/05 10:39:57;;;;;;;40.42;19.40;;;6.30;99.90;;;;;;6159788;23;20009;-83
2022/03/05 10:42:26;;;;;;;37.15;18.45;;;6.50;99.90;;;;;;6184143;23;20088;-83
2022/03/05 10:45:11;;;;;;;43.95;20.60;;;6.60;99.90;;;;;;6185761;23;20005;-83
2022/03/05 10:47:47;;;;;;;41.67;20.38;;;6.70;99.60;;;;;;6185791;23;20043;-80
2022/03/05 10:50:19;;;;;;;44.50;20.20;;;6.80;99.50;;;;;;6184372;23;20412;-84
2022/03/05 10:53:00;;;;;;;39.25;19.70;;;6.90;98.90;;;;;;6183643;23;20005;-82
2022/03/05 10:55:28;;;;;;;;;;;7.00;98.70;;;;;;6184798;23;20339;-83
2022/03/05 10:58:02;;;;;;;44.08;20.48;;;7.10;97.40;;;;;;6184406;23;19900;-83
2022/03/05 11:00:29;;;;;;;36.47;18.92;;;7.20;97.60;;;;;;6183598;23;20013;-83
2022/03/05 11:03:00;;;;;;;37.10;19.05;;;7.30;97.70;;;;;;6183627;23;19997;-83
2022/03/05 11:05:30;;;;;;;;;;;7.30;97.60;;;;;;6185787;23;20451;-82
2022/03/05 11:07:58;;;;;;;35.72;19.23;;;7.40;96.90;;;;;;6183778;23;20350;-84
2022/03/05 11:10:29;;;;;;;37.70;19.80;;;7.50;96.70;;;;;;6183610;23;20371;-84
2022/03/05 11:12:56;;;;;;;39.97;19.70;;;7.60;97.00;;;;;;6186001;23;20004;-81
2022/03/05 11:15:32;;;;;;;38.08;20.23;;;7.70;96.90;;;;;;6183512;23;20419;-82
2022/03/05 11:18:03;;;;;;;42.15;19.27;;;7.80;96.80;;;;;;6185173;23;20091;-82
2022/03/05 11:20:29;;;;;;;38.72;20.25;;;8.00;96.70;;;;;;6183736;23;20439;-82
2022/03/05 11:22:55;;;;;;;39.75;19.05;;;8.10;96.40;;;;;;6184018;23;20065;-82
2022/03/05 11:25:26;;;;;;;38.30;19.05;;;8.20;96.60;;;;;;6183948;23;20420;-82
2022/03/05 11:28:04;;;;;;;41.72;20.40;;;8.30;96.00;;;;;;6160132;23;20133;-82
2022/03/05 11:30:42;;;;;;;37.92;19.50;;;8.50;95.70;;;;;;6183724;23;20037;-82
2022/03/05 11:33:12;;;;;;;35.13;19.30;;;8.60;95.20;;;;;;6185174;23;20494;-82
2022/03/05 11:35:43;;;;;;;35.88;20.08;;;8.70;95.40;;;;;;6159063;23;20012;-82
2022/03/05 11:38:36;;;;;;;37.25;19.88;;;8.80;95.10;;;;;;6136831;23;20005;-82
2022/03/05 11:41:20;;;;;;;39.83;21.25;;;9.00;94.80;;;;;;6183880;23;20040;-83
2022/03/05 11:43:49;;;;;;;35.25;19.00;;;9.10;93.60;;;;;;6183732;23;20327;-83
2022/03/05 11:46:27;;;;;;;37.67;19.95;;;9.20;93.10;;;;;;6184087;23;20052;-82
2022/03/05 11:49:04;;;;;;;33.67;18.40;;;9.20;93.10;;;;;;6181793;23;20241;-84
2022/03/05 11:51:30;;;;;;;38.17;19.48;;;9.30;93.00;;;;;;6157104;23;20027;-84
2022/03/05 11:54:15;;;;;;;42.83;21.45;;;9.40;92.40;;;;;;6158359;23;20095;-85
2022/03/05 11:57:08;;;;;;;40.45;21.15;;;9.50;92.40;;;;;;6183660;23;20020;-85
2022/03/05 11:59:51;;;;;;;39.42;21.17;;;9.60;91.50;;;;;;6183446;23;20012;-85
2022/03/05 12:02:38;;;;;;;36.60;20.60;;;9.70;90.60;;;;;;6183946;23;20475;-84
2022/03/05 12:05:04;;;;;;;35.22;19.85;;;9.80;90.90;;;;;;6184588;23;20009;-84
2022/03/05 12:07:39;;;;;;;39.08;21.35;;;9.80;91.00;;;;;;6185462;23;20005;-84
2022/03/05 12:10:16;;;;;;;38.35;20.10;;;9.90;91.10;;;;;;6185101;23;20359;-84
2022/03/05 12:12:51;;;;;;;35.85;20.85;;;10.00;90.80;;;;;;6180894;23;20430;-81
2022/03/05 12:15:17;;;;;;;36.72;19.45;;;10.10;90.50;;;;;;6187357;23;20005;-81
2022/03/05 12:17:47;;;;;;;35.50;18.77;;;10.20;90.40;;;;;;6160333;23;20336;-81
2022/03/05 12:20:16;;;;;;;34.72;20.25;;;10.30;90.10;;;;;;6187415;23;20009;-81
2022/03/05 12:22:46;;;;;;;35.90;19.92;;;10.40;89.00;;;;;;6186964;23;20005;-81
2022/03/05 12:25:13;;;;;;;;;;;10.50;88.00;;;;;;6161805;23;20024;-81
2022/03/05 12:27:47;;;;;;;34.85;19.63;;;10.50;88.00;;;;;;6160419;23;19911;-82
2022/03/05 12:30:15;;;;;;;31.67;18.30;;;10.60;88.10;;;;;;6185200;23;20008;-81
2022/03/05 12:32:41;;;;;;;32.78;19.00;;;10.60;87.60;;;;;;6185033;23;20004;-80
2022/03/05 12:35:08;;;;;;;36.42;21.75;;;10.70;88.70;;;;;;6160890;23;20005;-81
2022/03/05 12:37:35;;;;;;;33.88;19.42;;;10.80;87.70;;;;;;6185287;23;20009;-82
2022/03/05 12:40:02;;;;;;;32.40;19.30;;;10.90;87.10;;;;;;6185373;23;20009;-82
2022/03/05 12:42:41;;;;;;;36.13;18.85;;;11.00;86.90;;;;;;6185387;23;20005;-80
2022/03/05 12:45:07;;;;;;;36.45;20.23;;;11.10;85.50;;;;;;6184914;23;19997;-80
2022/03/05 12:47:34;;;;;;;33.72;19.80;;;11.20;84.40;;;;;;6160320;23;20012;-83